createdAt,value
2022-12-28T00:03:45.751Z,3.74
2022-12-28T00:08:42.128Z,3.81
2022-12-28T00:13:39.151Z,3.81
2022-12-28T00:18:37.250Z,3.88
2022-12-28T00:23:33.714Z,3.95
2022-12-28T00:28:30.068Z,3.99
2022-12-28T00:33:26.417Z,4.05
2022-12-28T00:38:23.329Z,4.14
2022-12-28T00:43:19.684Z,4.23
2022-12-28T00:48:16.472Z,4.20
2022-12-28T00:53:13.460Z,4.24
2022-12-28T00:58:10.011Z,4.23
2022-12-28T01:03:06.464Z,4.22
2022-12-28T01:08:02.853Z,4.19
2022-12-28T01:12:59.167Z,4.27
2022-12-28T01:17:55.893Z,4.22
2022-12-28T01:22:52.279Z,4.30
2022-12-28T01:27:48.713Z,4.37
2022-12-28T01:32:45.094Z,4.44
2022-12-28T01:37:41.611Z,4.53
2022-12-28T01:42:38.486Z,4.55
2022-12-28T01:47:36.358Z,4.64
2022-12-28T01:52:35.526Z,4.73
2022-12-28T01:57:36.659Z,4.73
2022-12-28T02:02:33.742Z,4.69
2022-12-28T02:07:39.904Z,4.62
2022-12-28T02:12:36.287Z,4.56
2022-12-28T02:17:34.150Z,4.57
2022-12-28T02:22:43.349Z,4.57
2022-12-28T02:28:17.367Z,4.59
2022-12-28T02:33:26.199Z,4.62
2022-12-28T02:38:31.564Z,4.67
2022-12-28T02:43:28.608Z,4.68
2022-12-28T02:48:44.098Z,4.66
2022-12-28T02:54:03.070Z,4.74
2022-12-28T02:59:12.340Z,4.70
2022-12-28T03:04:34.306Z,4.64
2022-12-28T03:09:33.659Z,4.63
2022-12-28T03:14:38.905Z,4.69
2022-12-28T03:20:08.430Z,4.81
2022-12-28T03:25:32.283Z,4.80
2022-12-28T03:30:50.271Z,4.78
2022-12-28T03:36:01.471Z,4.98
2022-12-28T03:41:16.162Z,5.03
2022-12-28T03:46:22.505Z,5.15
2022-12-28T03:51:22.715Z,5.24
2022-12-28T03:56:22.121Z,5.36
2022-12-28T04:01:19.844Z,5.41
2022-12-28T04:06:18.670Z,5.50
2022-12-28T04:11:15.178Z,5.62
2022-12-28T04:16:13.064Z,5.69
2022-12-28T04:21:10.978Z,5.75
2022-12-28T04:26:11.624Z,5.78
2022-12-28T04:31:11.358Z,5.78
2022-12-28T04:36:13.748Z,5.80
2022-12-28T04:41:11.330Z,5.80
2022-12-28T04:46:12.027Z,5.84
2022-12-28T04:51:09.772Z,5.87
2022-12-28T04:56:07.743Z,5.94
2022-12-28T05:01:06.654Z,5.93
2022-12-28T05:06:05.072Z,6.02
2022-12-28T05:11:13.614Z,5.93
2022-12-28T05:16:13.071Z,5.97
2022-12-28T05:21:13.232Z,5.94
2022-12-28T05:26:13.048Z,5.89
2022-12-28T05:31:15.028Z,5.82
2022-12-28T05:36:14.439Z,5.77
2022-12-28T05:41:16.560Z,5.78
2022-12-28T05:46:22.090Z,5.74
2022-12-28T05:51:20.339Z,5.77
2022-12-28T05:56:19.449Z,5.81
2022-12-28T06:01:18.792Z,5.85
2022-12-28T06:06:18.804Z,5.84
2022-12-28T06:11:20.900Z,5.89
2022-12-28T06:16:23.084Z,5.90
2022-12-28T06:21:25.619Z,5.88
2022-12-28T06:26:22.044Z,5.86
2022-12-28T06:31:21.626Z,5.96
2022-12-28T06:36:21.267Z,5.93
2022-12-28T06:41:20.710Z,6.00
2022-12-28T06:46:19.617Z,6.07
2022-12-28T06:51:18.916Z,6.05
2022-12-28T06:56:18.513Z,6.08
2022-12-28T07:01:17.155Z,6.14
2022-12-28T07:06:15.997Z,6.24
2022-12-28T07:11:16.553Z,6.28
2022-12-28T07:16:23.772Z,6.44
2022-12-28T07:21:25.372Z,6.49
2022-12-28T07:26:27.084Z,6.50
2022-12-28T07:31:26.161Z,6.51
2022-12-28T07:36:23.935Z,6.50
2022-12-28T07:41:25.845Z,6.51
2022-12-28T07:46:24.896Z,6.53
2022-12-28T07:51:27.135Z,6.57
2022-12-28T07:56:25.081Z,6.63
2022-12-28T08:01:24.153Z,6.70
2022-12-28T08:06:23.045Z,6.74
2022-12-28T08:11:22.988Z,6.77
2022-12-28T08:16:21.361Z,6.79
2022-12-28T08:21:21.560Z,6.83
2022-12-28T08:26:22.459Z,6.84
2022-12-28T08:31:24.766Z,6.87
2022-12-28T08:36:21.846Z,6.88
2022-12-28T08:41:22.014Z,6.87
2022-12-28T08:46:23.562Z,6.87
2022-12-28T08:51:26.852Z,6.87
2022-12-28T08:56:28.995Z,6.91
2022-12-28T09:01:28.119Z,6.92
2022-12-28T09:06:30.006Z,6.97
2022-12-28T09:11:26.983Z,7.00
2022-12-28T09:16:26.874Z,6.96
2022-12-28T09:21:25.239Z,6.96
2022-12-28T09:26:23.939Z,6.93
2022-12-28T09:31:21.418Z,6.95
2022-12-28T09:36:19.137Z,6.96
2022-12-28T09:41:38.115Z,7.02
2022-12-28T09:46:38.665Z,7.03
2022-12-28T09:51:41.743Z,7.04
2022-12-28T09:56:41.614Z,7.09
2022-12-28T10:01:40.016Z,7.11
2022-12-28T10:06:37.656Z,7.12
2022-12-28T10:11:41.400Z,7.17
2022-12-28T10:16:41.775Z,7.15
2022-12-28T10:21:43.176Z,7.19
2022-12-28T10:26:42.750Z,7.24
2022-12-28T10:31:40.678Z,7.20
2022-12-28T10:36:37.284Z,7.25
2022-12-28T10:41:38.106Z,7.22
2022-12-28T10:46:35.882Z,7.25
2022-12-28T10:51:32.691Z,7.21
2022-12-28T10:56:32.228Z,7.14
2022-12-28T11:01:30.044Z,7.17
2022-12-28T11:06:50.759Z,7.21
2022-12-28T11:11:48.935Z,7.30
2022-12-28T11:16:45.481Z,7.50
2022-12-28T11:21:43.121Z,7.61
2022-12-28T11:26:43.394Z,7.72
2022-12-28T11:31:46.311Z,7.80
2022-12-28T11:36:42.979Z,7.89
2022-12-28T11:41:47.005Z,7.99
2022-12-28T11:47:06.041Z,8.05
2022-12-28T11:52:17.718Z,8.07
2022-12-28T11:57:39.707Z,8.12
2022-12-28T12:02:41.380Z,8.19
2022-12-28T12:07:48.180Z,8.17
2022-12-28T12:12:51.239Z,8.20
2022-12-28T12:17:52.783Z,8.27
2022-12-28T12:22:55.318Z,8.30
2022-12-28T12:28:01.643Z,8.35
2022-12-28T12:33:14.387Z,8.36
2022-12-28T12:38:25.292Z,8.36
2022-12-28T12:43:47.680Z,8.40
2022-12-28T12:49:02.495Z,8.45
2022-12-28T12:54:23.539Z,8.47
2022-12-28T12:59:40.144Z,8.47
2022-12-28T13:04:39.555Z,8.49
2022-12-28T13:09:36.270Z,8.51
2022-12-28T13:14:32.699Z,8.53
2022-12-28T13:19:29.806Z,8.56
2022-12-28T13:24:34.220Z,8.52
2022-12-28T13:29:39.707Z,8.46
2022-12-28T13:34:37.612Z,8.48
2022-12-28T13:39:41.476Z,8.46
2022-12-28T13:44:41.329Z,8.53
2022-12-28T13:49:44.880Z,8.52
2022-12-28T13:54:45.863Z,8.59
2022-12-28T13:59:42.987Z,8.58
2022-12-28T14:04:52.310Z,8.62
2022-12-28T14:09:50.763Z,8.59
2022-12-28T14:14:48.102Z,8.58
2022-12-28T14:19:44.968Z,8.46
2022-12-28T14:24:58.677Z,8.36
2022-12-28T14:29:56.563Z,8.22
2022-12-28T14:35:00.860Z,8.22
2022-12-28T14:40:04.456Z,8.17
2022-12-28T14:45:22.213Z,8.08
2022-12-28T14:50:25.177Z,8.09
2022-12-28T14:55:27.323Z,8.10
2022-12-28T15:00:27.600Z,8.07
2022-12-28T15:05:42.206Z,8.05
2022-12-28T15:10:47.555Z,8.02
2022-12-28T15:15:43.946Z,8.01
2022-12-28T15:20:40.335Z,8.06
2022-12-28T15:25:36.814Z,7.99
2022-12-28T15:30:33.171Z,7.96
2022-12-28T15:35:29.575Z,7.99
2022-12-28T15:40:26.092Z,7.96
2022-12-28T15:45:22.534Z,7.97
2022-12-28T15:50:19.000Z,7.94
2022-12-28T15:55:15.669Z,7.92
2022-12-28T16:00:18.625Z,7.88
2022-12-28T16:05:15.136Z,7.94
2022-12-28T16:10:11.507Z,7.98
2022-12-28T16:15:08.621Z,7.95
2022-12-28T16:20:05.420Z,7.98
2022-12-28T16:25:01.774Z,7.99
2022-12-28T16:29:58.988Z,7.90
2022-12-28T16:34:55.730Z,7.87
2022-12-28T16:39:52.058Z,7.92
2022-12-28T16:44:48.370Z,7.93
2022-12-28T16:49:44.767Z,7.89
2022-12-28T16:54:41.086Z,7.88
2022-12-28T16:59:37.458Z,7.88
2022-12-28T17:04:33.959Z,7.89
2022-12-28T17:09:30.352Z,7.85
2022-12-28T17:14:37.491Z,7.88
2022-12-28T17:19:34.990Z,7.87
2022-12-28T17:24:31.569Z,7.92
2022-12-28T17:29:27.931Z,7.86
2022-12-28T17:34:24.353Z,7.98
2022-12-28T17:39:21.286Z,8.06
2022-12-28T17:44:18.060Z,8.00
2022-12-28T17:49:15.759Z,8.07
2022-12-28T17:54:14.821Z,8.05
2022-12-28T17:59:16.220Z,8.10
2022-12-28T18:04:12.684Z,8.09
2022-12-28T18:09:09.120Z,8.14
2022-12-28T18:14:07.647Z,8.16
2022-12-28T18:19:03.979Z,8.15
2022-12-28T18:24:00.329Z,8.22
2022-12-28T18:28:57.470Z,8.20
2022-12-28T18:33:53.803Z,8.26
2022-12-28T18:38:50.628Z,8.27
2022-12-28T18:43:47.520Z,8.11
2022-12-28T18:48:44.006Z,7.99
2022-12-28T18:53:40.958Z,7.93
2022-12-28T18:58:39.293Z,7.90
2022-12-28T19:03:35.988Z,7.90
2022-12-28T19:08:34.378Z,7.79
2022-12-28T19:13:39.397Z,7.76
2022-12-28T19:18:35.829Z,7.70
2022-12-28T19:23:32.766Z,7.69
2022-12-28T19:28:29.093Z,7.70
2022-12-28T19:33:25.414Z,7.67
2022-12-28T19:38:21.786Z,7.65
2022-12-28T19:43:18.400Z,7.54
2022-12-28T19:48:14.913Z,7.56
2022-12-28T19:53:11.270Z,7.58
2022-12-28T19:58:07.632Z,7.67
2022-12-28T20:03:04.432Z,7.65
2022-12-28T20:08:00.913Z,7.58
2022-12-28T20:12:57.245Z,7.59
2022-12-28T20:17:53.584Z,7.56
2022-12-28T20:22:49.910Z,7.53
2022-12-28T20:27:46.349Z,7.47
2022-12-28T20:32:44.968Z,7.43
2022-12-28T20:37:41.623Z,7.42
2022-12-28T20:42:56.761Z,7.42
2022-12-28T20:47:53.630Z,7.40
2022-12-28T20:52:53.310Z,7.41
2022-12-28T20:57:49.702Z,7.35
2022-12-28T21:02:46.033Z,7.38
2022-12-28T21:07:42.344Z,7.39
2022-12-28T21:12:38.726Z,7.44
2022-12-28T21:17:35.737Z,7.52
2022-12-28T21:22:32.153Z,7.60
2022-12-28T21:27:29.171Z,7.71
2022-12-28T21:32:25.578Z,7.79
2022-12-28T21:37:34.035Z,7.84
2022-12-28T21:42:30.350Z,7.90
2022-12-28T21:47:26.750Z,7.95
2022-12-28T21:52:23.103Z,8.05
2022-12-28T21:57:19.467Z,8.16
2022-12-28T22:02:37.273Z,8.28
2022-12-28T22:07:34.793Z,8.33
2022-12-28T22:12:34.640Z,8.37
2022-12-28T22:17:31.249Z,8.45
2022-12-28T22:22:28.057Z,8.53
2022-12-28T22:27:24.465Z,8.62
2022-12-28T22:32:21.113Z,8.67
2022-12-28T22:37:17.760Z,8.76
2022-12-28T22:42:15.574Z,8.79
2022-12-28T22:47:11.927Z,8.87
2022-12-28T22:52:08.363Z,8.92
2022-12-28T22:57:07.063Z,8.97
2022-12-28T23:02:03.635Z,8.97
2022-12-28T23:07:03.524Z,8.97
2022-12-28T23:12:00.851Z,8.98
2022-12-28T23:16:57.848Z,9.00
2022-12-28T23:22:13.080Z,9.02
2022-12-28T23:27:28.029Z,9.09
2022-12-28T23:32:24.456Z,9.12
2022-12-28T23:37:20.994Z,9.15
2022-12-28T23:42:17.308Z,9.15
2022-12-28T23:47:15.235Z,9.09
2022-12-28T23:52:12.123Z,9.08
2022-12-28T23:57:08.491Z,9.19
